createdAt,value
2018-09-26T00:01:38.318Z,1.30
2018-09-26T00:04:18.000Z,8.10
2018-09-26T00:06:47.155Z,1.60
2018-09-26T00:09:16.170Z,1.07
2018-09-26T00:11:45.230Z,2.23
2018-09-26T00:14:14.773Z,6.13
2018-09-26T00:16:43.759Z,1.90
2018-09-26T00:19:12.808Z,1.47
2018-09-26T00:21:41.927Z,0.67
2018-09-26T00:24:10.871Z,1.33
2018-09-26T00:26:39.940Z,1.40
2018-09-26T00:29:08.948Z,1.83
2018-09-26T00:31:38.810Z,2.10
2018-09-26T00:34:07.762Z,6.50
2018-09-26T00:36:36.780Z,2.00
2018-09-26T00:39:10.053Z,4.07
2018-09-26T00:41:39.302Z,1.77
2018-09-26T00:44:08.355Z,1.57
2018-09-26T00:46:37.325Z,0.80
2018-09-26T00:49:06.434Z,1.67
2018-09-26T00:51:35.508Z,1.23
2018-09-26T00:54:04.733Z,1.43
2018-09-26T00:56:34.171Z,1.13
2018-09-26T00:59:03.203Z,0.77
2018-09-26T01:01:32.397Z,2.73
2018-09-26T01:04:01.621Z,1.20
2018-09-26T01:06:30.844Z,1.37
2018-09-26T01:08:59.956Z,9.57
2018-09-26T01:11:29.338Z,0.80
2018-09-26T01:13:58.727Z,13.87
2018-09-26T01:16:27.931Z,3.23
2018-09-26T01:18:58.856Z,4.93
2018-09-26T01:21:27.963Z,2.10
2018-09-26T01:23:56.953Z,4.90
2018-09-26T01:26:25.973Z,4.60
2018-09-26T01:28:56.415Z,2.40
2018-09-26T01:31:25.787Z,3.23
2018-09-26T01:33:55.283Z,3.70
2018-09-26T01:36:24.578Z,1.90
2018-09-26T01:38:53.988Z,7.63
2018-09-26T01:41:23.271Z,3.53
2018-09-26T01:43:52.737Z,3.03
2018-09-26T01:46:22.403Z,3.87
2018-09-26T01:48:51.642Z,2.40
2018-09-26T01:51:21.317Z,2.20
2018-09-26T01:53:50.738Z,1.70
2018-09-26T01:56:20.106Z,1.77
2018-09-26T01:58:49.523Z,1.33
2018-09-26T02:01:18.516Z,1.33
2018-09-26T02:03:47.744Z,0.90
2018-09-26T02:06:17.089Z,4.47
2018-09-26T02:08:46.177Z,4.43
2018-09-26T02:11:15.260Z,4.47
2018-09-26T02:13:44.258Z,1.67
2018-09-26T02:16:13.267Z,2.00
2018-09-26T02:18:42.336Z,4.37
2018-09-26T02:21:11.340Z,1.83
2018-09-26T02:23:40.823Z,1.10
2018-09-26T02:26:10.192Z,1.90
2018-09-26T02:28:39.512Z,5.13
2018-09-26T02:31:09.290Z,2.50
2018-09-26T02:33:38.591Z,4.50
2018-09-26T02:36:07.742Z,1.67
2018-09-26T02:38:37.003Z,6.97
2018-09-26T02:41:06.107Z,1.70
2018-09-26T02:43:35.139Z,4.57
2018-09-26T02:46:04.366Z,1.80
2018-09-26T02:48:38.328Z,0.83
2018-09-26T02:51:07.414Z,0.93
2018-09-26T02:53:36.448Z,1.50
2018-09-26T02:56:05.428Z,3.30
2018-09-26T02:58:34.551Z,0.93
2018-09-26T03:01:03.761Z,2.47
2018-09-26T03:03:32.859Z,2.63
2018-09-26T03:06:01.922Z,1.53
2018-09-26T03:08:30.930Z,0.83
2018-09-26T03:10:59.924Z,1.67
2018-09-26T03:13:29.260Z,2.10
2018-09-26T03:15:58.291Z,2.20
2018-09-26T03:18:27.336Z,1.20
2018-09-26T03:20:56.501Z,1.00
2018-09-26T03:23:25.615Z,3.43
2018-09-26T03:25:55.041Z,0.67
2018-09-26T03:28:24.452Z,3.93
2018-09-26T03:30:53.720Z,6.13
2018-09-26T03:33:22.761Z,1.37
2018-09-26T03:35:51.756Z,0.80
2018-09-26T03:38:20.824Z,1.23
2018-09-26T03:40:50.138Z,0.93
2018-09-26T03:43:19.162Z,3.57
2018-09-26T03:45:48.274Z,2.23
2018-09-26T03:48:17.284Z,3.33
2018-09-26T03:50:46.348Z,5.47
2018-09-26T03:53:16.426Z,10.40
2018-09-26T03:55:46.012Z,13.17
2018-09-26T03:58:15.080Z,13.80
2018-09-26T04:00:44.071Z,14.87
2018-09-26T04:03:13.156Z,8.77
2018-09-26T04:05:42.306Z,7.10
2018-09-26T04:08:11.734Z,5.63
2018-09-26T04:10:40.746Z,4.30
2018-09-26T04:13:10.535Z,5.70
2018-09-26T04:15:54.501Z,5.53
2018-09-26T04:18:25.453Z,6.47
2018-09-26T04:20:55.397Z,4.03
2018-09-26T04:23:24.398Z,4.13
2018-09-26T04:25:53.506Z,5.87
2018-09-26T04:28:22.636Z,5.03
2018-09-26T04:30:51.890Z,6.53
2018-09-26T04:33:21.050Z,4.03
2018-09-26T04:35:50.121Z,2.27
2018-09-26T04:38:19.225Z,2.70
2018-09-26T04:40:48.322Z,7.63
2018-09-26T04:43:17.402Z,3.63
2018-09-26T04:45:46.747Z,4.83
2018-09-26T04:48:15.991Z,3.50
2018-09-26T04:50:45.124Z,3.20
2018-09-26T04:53:14.330Z,6.10
2018-09-26T04:55:43.583Z,2.30
2018-09-26T04:58:12.903Z,7.90
2018-09-26T05:00:42.298Z,21.97
2018-09-26T05:03:11.323Z,28.13
2018-09-26T05:05:40.436Z,16.47
2018-09-26T05:08:09.680Z,9.33
2018-09-26T05:10:38.809Z,15.87
2018-09-26T05:13:07.987Z,13.30
2018-09-26T05:15:37.381Z,7.83
2018-09-26T05:18:07.403Z,8.07
2018-09-26T05:20:36.696Z,13.23
2018-09-26T05:23:06.011Z,9.63
2018-09-26T05:25:35.709Z,7.83
2018-09-26T05:28:06.791Z,7.20
2018-09-26T05:30:36.420Z,9.43
2018-09-26T05:33:08.484Z,7.07
2018-09-26T05:35:37.538Z,6.63
2018-09-26T05:38:06.610Z,5.37
2018-09-26T05:40:35.655Z,4.63
2018-09-26T05:43:04.730Z,5.80
2018-09-26T05:45:33.943Z,3.37
2018-09-26T05:48:04.282Z,15.23
2018-09-26T05:50:33.774Z,6.40
2018-09-26T05:53:03.069Z,4.80
2018-09-26T05:55:32.354Z,5.83
2018-09-26T05:58:01.523Z,5.63
2018-09-26T06:00:30.823Z,5.20
2018-09-26T06:02:59.876Z,8.73
2018-09-26T06:05:29.061Z,8.80
2018-09-26T06:07:58.252Z,9.07
2018-09-26T06:10:27.554Z,16.70
2018-09-26T06:12:56.898Z,12.77
2018-09-26T06:15:26.296Z,9.40
2018-09-26T06:17:55.650Z,14.57
2018-09-26T06:20:25.055Z,7.10
2018-09-26T06:22:54.243Z,5.80
2018-09-26T06:25:23.305Z,8.93
2018-09-26T06:27:52.457Z,8.00
2018-09-26T06:30:21.598Z,11.43
2018-09-26T06:32:50.681Z,3.77
2018-09-26T06:35:19.641Z,6.17
2018-09-26T06:37:48.975Z,6.23
2018-09-26T06:40:18.175Z,18.20
2018-09-26T06:42:47.380Z,7.10
2018-09-26T06:45:16.628Z,14.10
2018-09-26T06:47:45.708Z,6.73
2018-09-26T06:50:14.872Z,9.47
2018-09-26T06:52:43.997Z,10.23
2018-09-26T06:55:13.110Z,19.57
2018-09-26T06:57:42.456Z,5.90
2018-09-26T07:00:12.512Z,7.37
2018-09-26T07:02:42.011Z,3.20
2018-09-26T07:05:11.731Z,12.63
2018-09-26T07:07:42.974Z,3.40
2018-09-26T07:10:12.695Z,6.10
2018-09-26T07:12:43.522Z,7.70
2018-09-26T07:15:13.140Z,3.27
2018-09-26T07:17:42.464Z,4.63
2018-09-26T07:20:11.696Z,5.37
2018-09-26T07:22:40.908Z,5.53
2018-09-26T07:25:10.431Z,1.80
2018-09-26T07:27:39.948Z,6.40
2018-09-26T07:30:09.564Z,4.80
2018-09-26T07:32:39.085Z,3.43
2018-09-26T07:35:08.477Z,2.83
2018-09-26T07:37:38.160Z,6.07
2018-09-26T07:40:07.827Z,3.50
2018-09-26T07:42:37.244Z,1.03
2018-09-26T07:45:06.981Z,1.33
2018-09-26T07:47:36.382Z,6.30
2018-09-26T07:50:05.821Z,2.93
2018-09-26T07:52:34.918Z,1.17
2018-09-26T07:55:03.963Z,4.40
2018-09-26T07:57:33.474Z,2.93
2018-09-26T08:00:02.859Z,2.33
2018-09-26T08:02:32.397Z,8.17
2018-09-26T08:05:02.194Z,4.27
2018-09-26T08:07:31.481Z,3.00
2018-09-26T08:10:00.980Z,10.13
2018-09-26T08:12:30.687Z,5.17
2018-09-26T08:15:00.807Z,4.37
2018-09-26T08:17:31.207Z,3.07
2018-09-26T08:20:01.791Z,6.03
2018-09-26T08:22:31.112Z,10.90
2018-09-26T08:25:00.576Z,12.23
2018-09-26T08:27:30.034Z,4.40
2018-09-26T08:29:59.112Z,4.20
2018-09-26T08:32:28.165Z,6.03
2018-09-26T08:34:57.542Z,3.80
2018-09-26T08:37:27.787Z,4.73
2018-09-26T08:39:57.233Z,2.40
2018-09-26T08:42:26.678Z,1.43
2018-09-26T08:44:55.859Z,2.20
2018-09-26T08:47:26.295Z,3.63
2018-09-26T08:49:56.568Z,7.83
2018-09-26T08:52:26.452Z,6.30
2018-09-26T08:54:55.784Z,6.73
2018-09-26T08:57:25.250Z,5.30
2018-09-26T08:59:54.748Z,3.10
2018-09-26T09:02:24.033Z,2.50
2018-09-26T09:04:54.065Z,3.53
2018-09-26T09:07:23.544Z,16.93
2018-09-26T09:09:52.512Z,3.27
2018-09-26T09:12:21.763Z,3.07
2018-09-26T09:14:51.252Z,3.00
2018-09-26T09:17:20.356Z,3.60
2018-09-26T09:19:49.765Z,6.33
2018-09-26T09:22:18.794Z,1.73
2018-09-26T09:24:48.165Z,2.37
2018-09-26T09:27:17.549Z,1.53
2018-09-26T09:29:46.617Z,3.23
2018-09-26T09:32:15.745Z,4.37
2018-09-26T09:34:44.731Z,2.57
2018-09-26T09:37:13.903Z,3.77
2018-09-26T09:39:43.078Z,4.00
2018-09-26T09:42:12.213Z,4.67
2018-09-26T09:44:41.665Z,2.33
2018-09-26T09:47:10.716Z,6.27
2018-09-26T09:49:39.687Z,0.87
2018-09-26T09:52:09.445Z,2.77
2018-09-26T09:54:38.494Z,2.77
2018-09-26T09:57:07.732Z,10.97
2018-09-26T09:59:36.789Z,2.53
2018-09-26T10:02:05.982Z,2.47
2018-09-26T10:04:35.353Z,1.53
2018-09-26T10:07:04.732Z,4.10
2018-09-26T10:09:33.692Z,3.60
2018-09-26T10:12:02.745Z,4.97
2018-09-26T10:14:31.822Z,2.30
2018-09-26T10:17:00.801Z,8.87
2018-09-26T10:19:29.961Z,3.70
2018-09-26T10:21:59.187Z,1.20
2018-09-26T10:24:29.134Z,1.73
2018-09-26T10:26:58.295Z,6.00
2018-09-26T10:29:27.323Z,3.40
2018-09-26T10:31:56.503Z,8.90
2018-09-26T10:34:25.758Z,5.37
2018-09-26T10:36:55.117Z,2.13
2018-09-26T10:39:24.161Z,7.83
2018-09-26T10:41:53.633Z,3.13
2018-09-26T10:44:23.298Z,1.53
2018-09-26T10:46:52.562Z,2.20
2018-09-26T10:49:22.380Z,3.20
2018-09-26T10:51:51.390Z,8.80
2018-09-26T10:54:20.838Z,8.73
2018-09-26T10:56:50.543Z,4.47
2018-09-26T10:59:20.411Z,5.37
2018-09-26T11:01:49.663Z,4.80
2018-09-26T11:04:19.075Z,3.10
2018-09-26T11:06:48.507Z,4.97
2018-09-26T11:09:17.687Z,2.80
2018-09-26T11:11:46.676Z,5.13
2018-09-26T11:14:16.076Z,6.27
2018-09-26T11:16:45.514Z,2.20
2018-09-26T11:19:14.587Z,3.70
2018-09-26T11:21:43.969Z,1.20
2018-09-26T11:24:13.304Z,4.73
2018-09-26T11:26:42.736Z,2.20
2018-09-26T11:29:11.935Z,1.57
2018-09-26T11:31:41.014Z,1.20
2018-09-26T11:34:10.292Z,9.00
2018-09-26T11:36:39.665Z,7.50
2018-09-26T11:39:10.398Z,2.60
2018-09-26T11:41:39.514Z,1.77
2018-09-26T11:44:09.118Z,3.63
2018-09-26T11:46:38.734Z,2.40
2018-09-26T11:49:07.951Z,3.27
2018-09-26T11:51:37.057Z,7.80
2018-09-26T11:54:07.159Z,3.20
2018-09-26T11:56:36.139Z,0.60
2018-09-26T11:59:05.172Z,6.83
2018-09-26T12:01:34.268Z,4.27
2018-09-26T12:04:03.501Z,2.80
2018-09-26T12:06:32.574Z,3.03
2018-09-26T12:09:01.655Z,2.87
2018-09-26T12:11:30.892Z,2.03
2018-09-26T12:13:59.979Z,1.43
2018-09-26T12:16:29.081Z,7.07
2018-09-26T12:18:58.146Z,3.57
2018-09-26T12:21:30.539Z,2.50
2018-09-26T12:23:56.992Z,3.30
2018-09-26T12:26:26.249Z,0.87
2018-09-26T12:28:55.330Z,5.27
2018-09-26T12:31:24.483Z,2.30
2018-09-26T12:33:53.606Z,1.23
2018-09-26T12:36:22.816Z,0.50
2018-09-26T12:38:52.014Z,2.73
2018-09-26T12:41:21.129Z,1.53
2018-09-26T12:43:56.498Z,1.67
2018-09-26T12:46:25.798Z,1.80
2018-09-26T12:48:54.841Z,1.23
2018-09-26T12:51:23.853Z,2.10
2018-09-26T12:53:53.104Z,1.90
2018-09-26T12:56:22.161Z,2.20
2018-09-26T12:58:51.261Z,5.80
2018-09-26T13:01:20.473Z,4.03
2018-09-26T13:03:49.598Z,12.50
2018-09-26T13:06:19.026Z,5.40
2018-09-26T13:08:48.051Z,2.43
2018-09-26T13:11:18.324Z,3.00
2018-09-26T13:13:47.425Z,4.57
2018-09-26T13:16:16.658Z,8.60
2018-09-26T13:18:45.932Z,3.67
2018-09-26T13:21:15.223Z,1.50
2018-09-26T13:23:44.929Z,3.20
2018-09-26T13:26:14.248Z,2.17
2018-09-26T13:28:45.823Z,3.87
2018-09-26T13:31:16.159Z,2.23
2018-09-26T13:33:45.316Z,4.03
2018-09-26T13:36:14.766Z,0.80
2018-09-26T13:38:43.840Z,5.43
2018-09-26T13:41:12.896Z,2.47
2018-09-26T13:43:42.000Z,1.70
2018-09-26T13:46:11.199Z,2.07
2018-09-26T13:48:40.164Z,1.80
2018-09-26T13:51:09.249Z,2.87
2018-09-26T13:53:38.240Z,5.83
2018-09-26T13:56:08.764Z,2.80
2018-09-26T13:58:37.798Z,1.83
2018-09-26T14:01:06.867Z,1.00
2018-09-26T14:03:35.903Z,1.60
2018-09-26T14:06:04.971Z,3.60
2018-09-26T14:08:34.071Z,3.03
2018-09-26T14:11:03.034Z,1.57
2018-09-26T14:13:32.106Z,2.50
2018-09-26T14:16:01.207Z,1.20
2018-09-26T14:18:30.184Z,7.13
2018-09-26T14:20:59.177Z,1.93
2018-09-26T14:23:28.421Z,4.10
2018-09-26T14:25:57.476Z,0.87
2018-09-26T14:28:26.682Z,1.23
2018-09-26T14:30:55.722Z,1.97
2018-09-26T14:33:24.820Z,2.13
2018-09-26T14:35:53.809Z,0.40
2018-09-26T14:38:23.000Z,3.00
2018-09-26T14:40:52.140Z,2.10
2018-09-26T14:43:21.170Z,10.73
2018-09-26T14:45:50.336Z,2.40
2018-09-26T14:48:19.412Z,2.67
2018-09-26T14:50:48.545Z,1.10
2018-09-26T14:53:17.655Z,2.50
2018-09-26T14:55:46.678Z,2.93
2018-09-26T14:58:15.908Z,1.80
2018-09-26T15:00:44.887Z,4.57
2018-09-26T15:03:13.938Z,2.83
2018-09-26T15:05:42.992Z,12.57
2018-09-26T15:08:12.005Z,12.50
2018-09-26T15:10:41.105Z,3.33
2018-09-26T15:13:10.444Z,3.80
2018-09-26T15:15:39.572Z,11.67
2018-09-26T15:18:08.639Z,11.63
2018-09-26T15:20:37.761Z,3.37
2018-09-26T15:23:06.960Z,4.90
2018-09-26T15:25:36.024Z,6.27
2018-09-26T15:28:05.736Z,10.07
2018-09-26T15:30:34.819Z,3.90
2018-09-26T15:33:03.870Z,3.13
2018-09-26T15:35:32.908Z,5.50
2018-09-26T15:38:01.980Z,2.83
2018-09-26T15:40:31.012Z,6.77
2018-09-26T15:43:00.200Z,3.73
2018-09-26T15:45:29.744Z,7.40
2018-09-26T15:47:59.240Z,1.13
2018-09-26T15:50:28.303Z,2.23
2018-09-26T15:52:57.403Z,3.40
2018-09-26T15:55:26.603Z,1.60
2018-09-26T15:57:55.688Z,2.33
2018-09-26T16:00:24.889Z,2.13
2018-09-26T16:02:54.799Z,4.57
2018-09-26T16:05:23.903Z,3.90
2018-09-26T16:07:53.082Z,3.20
2018-09-26T16:10:22.291Z,1.77
2018-09-26T16:12:51.304Z,2.37
2018-09-26T16:15:20.345Z,3.73
2018-09-26T16:17:49.509Z,5.40
2018-09-26T16:20:19.485Z,3.20
2018-09-26T16:22:48.592Z,2.50
2018-09-26T16:25:17.728Z,6.73
2018-09-26T16:27:46.893Z,5.93
2018-09-26T16:30:16.073Z,42.00
2018-09-26T16:32:46.341Z,28.03
2018-09-26T16:35:15.357Z,5.80
2018-09-26T16:37:46.303Z,14.17
2018-09-26T16:40:15.588Z,25.97
2018-09-26T16:42:44.672Z,32.83
2018-09-26T16:45:14.973Z,19.47
2018-09-26T16:47:44.124Z,14.40
2018-09-26T16:50:13.220Z,12.80
2018-09-26T16:52:42.419Z,22.40
2018-09-26T16:55:11.392Z,47.33
2018-09-26T16:57:40.387Z,37.40
2018-09-26T17:00:09.516Z,46.00
2018-09-26T17:02:38.533Z,13.90
2018-09-26T17:05:07.746Z,14.50
2018-09-26T17:07:36.846Z,22.30
2018-09-26T17:10:06.368Z,61.20
2018-09-26T17:12:35.554Z,71.47
2018-09-26T17:15:04.991Z,38.50
2018-09-26T17:17:34.812Z,18.83
2018-09-26T17:20:03.878Z,10.47
2018-09-26T17:22:32.943Z,11.13
2018-09-26T17:25:01.965Z,5.97
2018-09-26T17:27:31.374Z,5.33
2018-09-26T17:30:00.460Z,10.20
2018-09-26T17:32:29.701Z,11.80
2018-09-26T17:34:58.733Z,12.53
2018-09-26T17:37:27.756Z,7.87
2018-09-26T17:39:56.813Z,5.93
2018-09-26T17:42:26.050Z,5.70
2018-09-26T17:44:55.772Z,4.20
2018-09-26T17:47:24.913Z,3.40
2018-09-26T17:49:53.948Z,1.00
2018-09-26T17:52:23.140Z,3.53
2018-09-26T17:54:52.070Z,5.63
2018-09-26T17:57:21.188Z,3.50
2018-09-26T17:59:50.229Z,1.53
2018-09-26T18:02:19.441Z,1.70
2018-09-26T18:04:49.288Z,6.43
2018-09-26T18:07:18.323Z,2.30
2018-09-26T18:09:47.297Z,4.67
2018-09-26T18:12:16.435Z,9.10
2018-09-26T18:14:45.513Z,2.00
2018-09-26T18:17:14.644Z,4.83
2018-09-26T18:19:43.636Z,4.30
2018-09-26T18:22:12.910Z,4.90
2018-09-26T18:24:41.887Z,4.80
2018-09-26T18:27:11.569Z,4.30
2018-09-26T18:29:40.700Z,3.80
2018-09-26T18:32:09.766Z,7.63
2018-09-26T18:34:38.935Z,2.87
2018-09-26T18:37:08.108Z,4.97
2018-09-26T18:39:37.318Z,3.57
2018-09-26T18:42:07.000Z,2.13
2018-09-26T18:44:36.202Z,9.83
2018-09-26T18:47:05.273Z,4.77
2018-09-26T18:49:35.469Z,5.37
2018-09-26T18:52:04.725Z,4.30
2018-09-26T18:54:33.910Z,4.53
2018-09-26T18:57:03.111Z,6.00
2018-09-26T18:59:32.629Z,4.33
2018-09-26T19:02:01.680Z,2.53
2018-09-26T19:04:30.911Z,3.57
2018-09-26T19:06:59.948Z,6.43
2018-09-26T19:09:29.279Z,2.27
2018-09-26T19:11:58.431Z,10.37
2018-09-26T19:14:27.496Z,2.57
2018-09-26T19:16:56.612Z,4.80
2018-09-26T19:19:26.779Z,4.53
2018-09-26T19:21:56.221Z,3.47
2018-09-26T19:24:25.682Z,2.77
2018-09-26T19:26:55.251Z,8.13
2018-09-26T19:29:25.254Z,4.83
2018-09-26T19:31:54.400Z,6.00
2018-09-26T19:34:23.455Z,3.20
2018-09-26T19:36:52.587Z,2.33
2018-09-26T19:39:21.733Z,2.23
2018-09-26T19:41:50.936Z,4.67
2018-09-26T19:44:20.030Z,2.83
2018-09-26T19:46:49.087Z,2.90
2018-09-26T19:49:18.509Z,1.83
2018-09-26T19:51:47.994Z,6.10
2018-09-26T19:59:42.262Z,2.27
2018-09-26T20:02:11.445Z,8.37
2018-09-26T20:04:40.596Z,5.87
2018-09-26T20:07:09.727Z,7.00
2018-09-26T20:09:38.769Z,8.90
2018-09-26T20:12:08.050Z,9.37
2018-09-26T20:14:37.404Z,6.40
2018-09-26T20:17:06.743Z,4.20
2018-09-26T20:19:35.785Z,4.30
2018-09-26T20:22:05.261Z,8.10
2018-09-26T20:24:34.244Z,9.77
2018-09-26T20:30:11.254Z,8.17
2018-09-26T20:32:40.365Z,18.87
2018-09-26T20:35:09.452Z,13.20
2018-09-26T20:37:38.718Z,10.17
2018-09-26T20:40:07.951Z,10.33
2018-09-26T20:42:36.931Z,9.87
2018-09-26T20:45:06.534Z,3.97
2018-09-26T20:47:35.786Z,6.30
2018-09-26T20:50:06.771Z,8.17
2018-09-26T20:52:36.330Z,14.50
2018-09-26T20:55:05.776Z,10.70
2018-09-26T20:57:34.827Z,8.03
2018-09-26T21:00:04.482Z,11.93
2018-09-26T21:02:33.664Z,19.33
2018-09-26T21:05:03.803Z,3.30
2018-09-26T21:07:33.402Z,10.83
2018-09-26T21:10:03.090Z,16.53
2018-09-26T21:12:33.404Z,9.17
2018-09-26T21:15:02.507Z,13.93
2018-09-26T21:17:32.224Z,11.10
2018-09-26T21:20:01.316Z,14.67
2018-09-26T21:22:30.419Z,14.20
2018-09-26T21:24:59.938Z,12.23
2018-09-26T21:27:29.087Z,9.10
2018-09-26T21:29:58.217Z,11.10
2018-09-26T21:32:27.324Z,5.57
2018-09-26T21:34:57.632Z,9.83
2018-09-26T21:37:26.861Z,14.47
2018-09-26T21:39:56.117Z,7.40
2018-09-26T21:42:25.276Z,8.63
2018-09-26T21:44:54.382Z,3.37
2018-09-26T21:47:24.329Z,6.83
2018-09-26T21:49:53.489Z,5.90
2018-09-26T21:52:22.450Z,6.20
2018-09-26T21:54:51.620Z,3.33
2018-09-26T21:57:20.807Z,3.80
2018-09-26T21:59:49.842Z,3.30
2018-09-26T22:02:19.057Z,7.30
2018-09-26T22:04:48.043Z,7.40
2018-09-26T22:07:17.133Z,6.23
2018-09-26T22:09:46.164Z,3.43
2018-09-26T22:12:15.341Z,6.37
2018-09-26T22:14:44.409Z,6.13
2018-09-26T22:17:13.435Z,5.90
2018-09-26T22:19:42.510Z,6.17
2018-09-26T22:22:11.511Z,2.80
2018-09-26T22:24:40.736Z,6.70
2018-09-26T22:27:09.777Z,7.57
2018-09-26T22:29:38.940Z,4.40
2018-09-26T22:32:07.955Z,2.40
2018-09-26T22:34:37.033Z,8.60
2018-09-26T22:37:06.151Z,2.60
2018-09-26T22:39:35.144Z,2.40
2018-09-26T22:42:04.125Z,2.40
2018-09-26T22:44:33.155Z,1.90
2018-09-26T22:47:02.373Z,7.73
2018-09-26T22:49:31.454Z,2.20
2018-09-26T22:52:00.635Z,1.73
2018-09-26T22:54:29.696Z,3.33
2018-09-26T22:56:58.773Z,3.10
2018-09-26T22:59:27.854Z,2.43
2018-09-26T23:01:56.902Z,5.67
2018-09-26T23:04:26.029Z,2.10
2018-09-26T23:06:55.048Z,7.43
2018-09-26T23:09:24.146Z,2.83
2018-09-26T23:11:53.428Z,2.73
2018-09-26T23:14:22.472Z,2.17
2018-09-26T23:16:51.657Z,1.57
2018-09-26T23:19:20.827Z,3.13
2018-09-26T23:21:49.886Z,4.00
2018-09-26T23:24:18.876Z,6.23
2018-09-26T23:26:47.909Z,3.33
2018-09-26T23:29:16.934Z,3.13
2018-09-26T23:31:46.001Z,2.07
2018-09-26T23:34:15.159Z,3.07
2018-09-26T23:36:44.599Z,2.87
2018-09-26T23:39:15.132Z,3.13
2018-09-26T23:41:44.720Z,3.07
2018-09-26T23:44:14.168Z,3.40
2018-09-26T23:46:43.641Z,3.43
2018-09-26T23:49:12.910Z,14.83
2018-09-26T23:51:42.288Z,5.47
2018-09-26T23:54:11.740Z,6.23
2018-09-26T23:56:41.070Z,8.73
2018-09-26T23:59:10.377Z,6.10
